Time;durP1;ratioP1;P1;durP2;ratioP2;P2;SDS_P1;SDS_P2;PMS_P1;PMS_P2;Temp;Humidity;BMP_temperature;BMP_pressure;BME280_temperature;BME280_humidity;BME280_pressure;Samples;Min_cycle;Max_cycle;Signal;HPM_P1;HPM_P2
2021/10/28 00:12:26;;;;;;;297.55;278.73;;;9.70;99.90;;;;;;4997921;28;20221;-83
2021/10/28 00:14:57;;;;;;;278.38;260.80;;;9.70;99.90;;;;;;5039319;28;20152;-83
2021/10/28 00:21:23;;;;;;;270.92;253.35;;;9.60;99.90;;;;;;5014211;28;20169;-83
2021/10/28 00:26:58;;;;;;;286.73;269.02;;;9.60;99.90;;;;;;5036040;28;20189;-83
2021/10/28 00:29:47;;;;;;;284.23;265.80;;;9.60;99.90;;;;;;5039295;28;20272;-83
2021/10/28 00:32:21;;;;;;;273.30;255.93;;;9.60;99.90;;;;;;5039176;28;20161;-83
2021/10/28 00:34:46;;;;;;;297.80;279.50;;;9.60;99.90;;;;;;5103499;22;20217;-79
2021/10/28 00:37:12;;;;;;;267.40;249.53;;;9.60;99.90;;;;;;5037054;28;20607;-79
2021/10/28 00:39:39;;;;;;;315.40;296.70;;;9.60;99.90;;;;;;5037976;28;20208;-79
2021/10/28 00:42:05;;;;;;;299.52;281.20;;;9.60;99.90;;;;;;5037063;28;20169;-79
2021/10/28 00:44:31;;;;;;;280.75;262.33;;;9.60;99.90;;;;;;5038168;28;20224;-79
2021/10/28 00:46:57;;;;;;;272.03;254.60;;;9.60;99.90;;;;;;5038094;28;20172;-79
2021/10/28 00:49:23;;;;;;;312.33;293.00;;;9.60;99.90;;;;;;5037941;28;20434;-78
2021/10/28 00:51:48;;;;;;;318.90;298.90;;;9.60;99.90;;;;;;5036738;28;20172;-79
2021/10/28 00:54:21;;;;;;;312.00;293.20;;;9.60;99.90;;;;;;5038375;28;20215;-79
2021/10/28 00:56:50;;;;;;;374.35;352.98;;;9.50;99.90;;;;;;5038720;28;20160;-78
2021/10/28 00:59:16;;;;;;;318.20;298.95;;;9.50;99.90;;;;;;5038289;28;20189;-79
2021/10/28 01:01:42;;;;;;;328.57;308.60;;;9.50;99.90;;;;;;5037533;28;20161;-79
2021/10/28 01:04:09;;;;;;;316.73;297.20;;;9.50;99.90;;;;;;5037699;28;20157;-79
2021/10/28 01:06:37;;;;;;;335.20;315.10;;;9.50;99.90;;;;;;5037553;28;20169;-79
2021/10/28 01:09:03;;;;;;;321.73;301.38;;;9.60;99.90;;;;;;5036320;28;20189;-79
2021/10/28 01:11:32;;;;;;;364.08;343.27;;;9.50;99.90;;;;;;5037800;28;20165;-80
2021/10/28 01:13:59;;;;;;;305.52;285.75;;;9.50;99.90;;;;;;5038498;28;20211;-80
2021/10/28 01:16:26;;;;;;;347.40;326.75;;;9.60;99.90;;;;;;5039630;28;20195;-80
2021/10/28 01:18:53;;;;;;;315.95;296.17;;;9.60;99.90;;;;;;5039462;28;20177;-80
2021/10/28 01:21:19;;;;;;;347.20;326.70;;;9.50;99.90;;;;;;5039548;28;20168;-80
2021/10/28 01:23:46;;;;;;;337.67;317.58;;;9.50;99.90;;;;;;5039400;28;20165;-80
2021/10/28 01:26:14;;;;;;;358.15;336.38;;;9.40;99.90;;;;;;5038929;28;20193;-80
2021/10/28 01:28:50;;;;;;;344.92;324.23;;;9.40;99.90;;;;;;5038629;28;20181;-80
2021/10/28 01:31:15;;;;;;;352.83;332.42;;;9.40;99.90;;;;;;5039283;28;20202;-80
2021/10/28 01:33:41;;;;;;;368.57;346.53;;;9.40;99.90;;;;;;5037727;28;20177;-80
2021/10/28 01:36:08;;;;;;;355.87;334.90;;;9.40;99.90;;;;;;5038810;28;20164;-80
2021/10/28 01:38:37;;;;;;;370.65;348.50;;;9.40;99.90;;;;;;5039323;28;20652;-80
2021/10/28 01:41:04;;;;;;;355.17;333.77;;;9.40;99.90;;;;;;5038510;28;20170;-80
2021/10/28 01:43:32;;;;;;;360.90;339.60;;;9.40;99.90;;;;;;5037909;28;20231;-80
2021/10/28 01:45:58;;;;;;;356.35;335.15;;;9.40;99.90;;;;;;5038060;28;20631;-80
2021/10/28 01:48:26;;;;;;;321.92;302.38;;;9.30;99.90;;;;;;5037428;28;20668;-79
2021/10/28 01:50:52;;;;;;;356.92;335.88;;;9.30;99.90;;;;;;5037401;28;20169;-79
2021/10/28 01:53:18;;;;;;;389.08;366.10;;;9.30;99.90;;;;;;5036920;28;20158;-79
2021/10/28 01:55:45;;;;;;;374.88;352.65;;;9.30;99.90;;;;;;5036684;28;20161;-79
2021/10/28 01:58:12;;;;;;;385.95;363.38;;;9.30;99.90;;;;;;5037280;28;20268;-80
2021/10/28 02:00:40;;;;;;;385.98;364.25;;;9.30;99.90;;;;;;5038973;28;20161;-81
2021/10/28 02:03:05;;;;;;;420.60;396.35;;;9.30;99.90;;;;;;5038192;28;20165;-80
2021/10/28 02:05:31;;;;;;;410.53;386.63;;;9.30;99.90;;;;;;5038600;28;20199;-80
2021/10/28 02:07:57;;;;;;;384.63;362.35;;;9.40;99.90;;;;;;5038685;28;20550;-80
2021/10/28 02:10:26;;;;;;;391.13;368.07;;;9.40;99.90;;;;;;5037110;28;20171;-80
2021/10/28 02:12:55;;;;;;;406.50;383.08;;;9.30;99.90;;;;;;5037623;28;20400;-80
2021/10/28 02:15:21;;;;;;;371.95;350.23;;;9.40;99.90;;;;;;5038704;28;20509;-80
2021/10/28 02:17:47;;;;;;;395.37;372.10;;;9.40;99.90;;;;;;5038818;28;20192;-80
2021/10/28 02:20:18;;;;;;;365.23;343.23;;;9.40;99.90;;;;;;5038122;28;20161;-80
2021/10/28 02:22:48;;;;;;;447.00;420.85;;;9.40;99.90;;;;;;5036492;28;20298;-80
2021/10/28 02:25:14;;;;;;;388.35;365.17;;;9.50;99.90;;;;;;5037749;28;20231;-81
2021/10/28 02:27:46;;;;;;;411.10;386.80;;;9.50;99.90;;;;;;5036266;28;20189;-81
2021/10/28 02:30:14;;;;;;;379.40;357.23;;;9.60;99.90;;;;;;5037498;28;20157;-80
2021/10/28 02:32:41;;;;;;;429.27;404.58;;;9.60;99.90;;;;;;5037514;28;20174;-80
2021/10/28 02:35:08;;;;;;;399.80;376.55;;;9.70;99.90;;;;;;5037985;28;20545;-80
2021/10/28 02:37:33;;;;;;;406.52;382.40;;;9.70;99.90;;;;;;5037417;28;20211;-80
2021/10/28 02:39:59;;;;;;;374.33;352.03;;;9.70;99.90;;;;;;5038218;28;20169;-81
2021/10/28 02:42:28;;;;;;;396.93;373.67;;;9.70;99.90;;;;;;5036847;28;20185;-81
2021/10/28 02:44:53;;;;;;;367.17;344.73;;;9.80;99.90;;;;;;5036085;28;20483;-81
2021/10/28 02:47:19;;;;;;;371.93;349.47;;;9.70;99.90;;;;;;5037654;28;20172;-80
2021/10/28 02:49:46;;;;;;;392.30;369.43;;;9.70;99.90;;;;;;5036469;28;20214;-81
2021/10/28 02:52:11;;;;;;;358.70;336.95;;;9.80;99.90;;;;;;5036438;28;20550;-81
2021/10/28 02:54:38;;;;;;;384.37;361.73;;;9.80;99.90;;;;;;5037672;28;20648;-80
2021/10/28 02:57:06;;;;;;;362.75;340.85;;;9.80;99.90;;;;;;5037506;28;20161;-81
2021/10/28 02:59:31;;;;;;;435.27;409.15;;;9.80;99.90;;;;;;5036957;28;20223;-80
2021/10/28 03:01:57;;;;;;;402.17;378.77;;;9.80;99.90;;;;;;5037027;28;20161;-80
2021/10/28 03:04:24;;;;;;;411.53;387.53;;;9.80;99.90;;;;;;5038551;28;20444;-80
2021/10/28 03:06:52;;;;;;;386.83;363.98;;;9.80;99.90;;;;;;5036500;28;20168;-80
2021/10/28 03:09:26;;;;;;;414.83;390.48;;;9.90;99.90;;;;;;5036638;28;20223;-80
2021/10/28 03:11:56;;;;;;;377.35;354.67;;;9.90;99.90;;;;;;5035935;28;20605;-80
2021/10/28 03:14:30;;;;;;;395.42;372.23;;;9.90;99.90;;;;;;5036248;28;20175;-80
2021/10/28 03:27:25;;;;;;;420.83;396.70;;;9.90;99.90;;;;;;5036364;28;20160;-80
2021/10/28 03:29:51;;;;;;;443.27;418.67;;;9.90;99.90;;;;;;5035659;28;20185;-80
2021/10/28 03:32:18;;;;;;;396.13;372.63;;;9.90;99.90;;;;;;5036945;28;20169;-80
2021/10/28 03:34:45;;;;;;;400.20;377.23;;;9.80;99.90;;;;;;5036143;28;20267;-79
2021/10/28 03:37:18;;;;;;;369.92;347.40;;;9.80;99.90;;;;;;5035357;28;20204;-79
2021/10/28 03:50:32;;;;;;;365.50;343.67;;;9.80;99.90;;;;;;5035910;28;20161;-79
2021/10/28 04:04:05;;;;;;;326.25;305.63;;;9.90;99.90;;;;;;5039203;28;20679;-80
2021/10/28 04:16:24;;;;;;;369.20;346.90;;;9.80;99.90;;;;;;5038755;28;20177;-79
2021/10/28 04:30:03;;;;;;;287.35;267.92;;;10.00;99.90;;;;;;5038559;28;20161;-80
2021/10/28 04:32:32;;;;;;;270.02;251.18;;;10.00;99.90;;;;;;5036706;28;20173;-79
2021/10/28 04:34:58;;;;;;;266.13;248.02;;;10.00;99.90;;;;;;5036890;28;20199;-79
2021/10/28 04:37:24;;;;;;;259.77;241.87;;;9.90;99.90;;;;;;5038095;28;20188;-79
2021/10/28 04:39:49;;;;;;;306.33;286.83;;;10.00;99.90;;;;;;5038317;28;20169;-79
2021/10/28 04:42:18;;;;;;;309.33;289.07;;;10.00;99.90;;;;;;5038161;28;20169;-79
2021/10/28 04:44:44;;;;;;;313.63;293.60;;;10.00;99.90;;;;;;5037797;28;20189;-79
2021/10/28 04:47:09;;;;;;;325.00;304.73;;;10.10;99.90;;;;;;5038567;28;20161;-79
2021/10/28 04:49:35;;;;;;;303.13;283.77;;;10.10;99.90;;;;;;5037902;28;20192;-79
2021/10/28 04:52:01;;;;;;;314.07;294.10;;;10.10;99.90;;;;;;5037885;28;20168;-79
2021/10/28 04:54:27;;;;;;;314.43;294.10;;;10.10;99.90;;;;;;5038289;28;20446;-80
2021/10/28 04:56:52;;;;;;;302.10;282.90;;;10.00;99.90;;;;;;5038203;28;20494;-79
2021/10/28 04:59:18;;;;;;;312.90;293.13;;;10.00;99.90;;;;;;5038133;28;20185;-80
2021/10/28 05:01:44;;;;;;;323.43;302.93;;;9.90;99.90;;;;;;5036892;28;20165;-79
2021/10/28 05:04:10;;;;;;;339.30;318.93;;;9.90;99.90;;;;;;5037717;28;20169;-79
2021/10/28 05:06:36;;;;;;;331.33;310.73;;;9.90;99.90;;;;;;5035766;28;20427;-79
2021/10/28 05:09:03;;;;;;;347.65;326.80;;;9.80;99.90;;;;;;5036438;28;20185;-79
2021/10/28 05:11:29;;;;;;;369.33;347.85;;;9.80;99.90;;;;;;5036698;28;20165;-79
2021/10/28 05:13:55;;;;;;;358.00;336.50;;;9.80;99.90;;;;;;5037734;28;20164;-79
2021/10/28 05:16:21;;;;;;;369.30;347.53;;;9.70;99.90;;;;;;5038300;28;20165;-79
2021/10/28 05:18:47;;;;;;;377.27;354.98;;;9.70;99.90;;;;;;5036053;28;20428;-79
2021/10/28 05:21:15;;;;;;;368.90;347.63;;;9.70;99.90;;;;;;5037966;28;20219;-80
2021/10/28 05:23:41;;;;;;;386.25;363.48;;;9.70;99.90;;;;;;5037097;28;20173;-79
2021/10/28 05:26:08;;;;;;;391.33;368.77;;;9.60;99.90;;;;;;5037725;28;20193;-79
2021/10/28 05:28:37;;;;;;;377.55;355.90;;;9.70;99.90;;;;;;5035692;28;20276;-79
2021/10/28 05:31:03;;;;;;;384.13;361.92;;;9.60;99.90;;;;;;5036262;28;20166;-79
2021/10/28 05:33:28;;;;;;;448.02;422.27;;;9.60;99.90;;;;;;5037109;28;20309;-79
2021/10/28 05:35:54;;;;;;;379.63;357.20;;;9.60;99.90;;;;;;5036729;28;20537;-79
2021/10/28 05:38:20;;;;;;;405.50;381.37;;;9.50;99.90;;;;;;5035587;28;20189;-80
2021/10/28 05:40:46;;;;;;;390.27;367.60;;;9.50;99.90;;;;;;5037543;28;20169;-79
2021/10/28 05:43:12;;;;;;;395.13;372.23;;;9.40;99.90;;;;;;5037881;28;20695;-79
2021/10/28 05:45:39;;;;;;;367.77;345.95;;;9.40;99.90;;;;;;5037542;28;20239;-80
2021/10/28 05:48:05;;;;;;;382.85;360.25;;;9.40;99.90;;;;;;5037034;28;20280;-79
2021/10/28 05:50:31;;;;;;;373.85;351.67;;;9.40;99.90;;;;;;5037776;28;20161;-80
2021/10/28 05:52:59;;;;;;;373.05;350.95;;;9.40;99.90;;;;;;5037518;28;20162;-79
2021/10/28 05:55:25;;;;;;;355.17;333.85;;;9.40;99.90;;;;;;5036163;28;20173;-80
2021/10/28 05:57:52;;;;;;;326.90;306.42;;;9.40;99.90;;;;;;5037951;28;20185;-79
2021/10/28 06:00:19;;;;;;;327.83;306.65;;;9.40;99.90;;;;;;5035944;28;20165;-80
2021/10/28 06:02:45;;;;;;;326.88;306.10;;;9.40;99.90;;;;;;5037229;28;20227;-79
2021/10/28 06:05:11;;;;;;;293.27;274.23;;;9.50;99.90;;;;;;5035742;28;20201;-79
2021/10/28 06:07:39;;;;;;;311.38;291.25;;;9.50;99.90;;;;;;5036261;28;20404;-80
2021/10/28 06:10:05;;;;;;;291.20;271.55;;;9.50;99.90;;;;;;5037302;28;20169;-80
2021/10/28 06:12:35;;;;;;;265.05;246.65;;;9.50;99.90;;;;;;5037282;28;20174;-80
2021/10/28 06:15:03;;;;;;;238.35;220.30;;;9.50;99.90;;;;;;5035419;28;20161;-78
2021/10/28 06:17:33;;;;;;;254.48;236.55;;;9.60;99.90;;;;;;5035399;28;20161;-79
2021/10/28 06:20:01;;;;;;;291.13;271.77;;;9.60;99.90;;;;;;5036946;28;20199;-79
2021/10/28 06:22:28;;;;;;;231.90;214.70;;;9.60;99.90;;;;;;5035301;28;20729;-80
2021/10/28 06:24:58;;;;;;;264.55;246.38;;;9.60;99.90;;;;;;5037538;28;20231;-80
2021/10/28 06:30:26;;;;;;;245.90;227.10;;;9.60;99.90;;;;;;5065461;23;20347;-80
2021/10/28 06:33:27;;;;;;;310.92;289.92;;;9.60;99.90;;;;;;5037548;28;20376;-79
2021/10/28 06:36:22;;;;;;;307.13;287.05;;;9.60;99.90;;;;;;5037221;28;20182;-80
2021/10/28 06:39:12;;;;;;;302.77;283.17;;;9.50;99.90;;;;;;5034817;28;20255;-79
2021/10/28 06:48:53;;;;;;;308.67;288.83;;;9.50;99.90;;;;;;5009242;28;20283;-80
2021/10/28 06:51:37;;;;;;;;;;;;;;;;;;;;;
2021/10/28 06:54:34;;;;;;;314.65;294.55;;;9.50;99.90;;;;;;5037428;28;20240;-80
2021/10/28 07:03:23;;;;;;;297.15;277.85;;;9.50;99.90;;;;;;5037033;28;20148;-80
2021/10/28 07:11:43;;;;;;;350.15;329.52;;;9.60;99.90;;;;;;4995500;28;20496;-79
2021/10/28 07:14:20;;;;;;;368.20;346.02;;;9.60;99.90;;;;;;5027971;28;20173;-81
2021/10/28 07:28:55;;;;;;;314.77;294.52;;;9.60;99.90;;;;;;5036207;28;20542;-80
2021/10/28 07:54:54;;;;;;;288.15;269.50;;;9.70;99.90;;;;;;5040528;28;20220;-80
2021/10/28 08:00:03;;;;;;;217.32;200.75;;;9.90;99.90;;;;;;5040138;28;20248;-80
2021/10/28 08:05:43;;;;;;;263.92;245.63;;;10.00;99.90;;;;;;5039629;28;20188;-80
2021/10/28 08:16:33;;;;;;;275.20;256.50;;;10.10;99.90;;;;;;5040201;28;20150;-80
2021/10/28 08:19:20;;;;;;;256.55;239.02;;;10.20;99.90;;;;;;5039727;28;20735;-80
2021/10/28 08:22:37;;;;;;;250.95;233.70;;;10.20;99.90;;;;;;5037902;28;20169;-80
2021/10/28 08:28:41;;;;;;;315.33;295.48;;;10.20;99.90;;;;;;5035448;28;20620;-80
2021/10/28 08:30:03;;;;;;;316.23;296.27;;;10.30;99.90;;;;;;5043654;22;20232;-79
2021/10/28 08:33:07;;;;;;;;;;;;;;;;;;;;;
2021/10/28 08:36:26;;;;;;;323.98;303.67;;;10.40;99.90;;;;;;5036802;28;20255;-79
2021/10/28 08:39:21;;;;;;;374.77;352.92;;;10.50;99.90;;;;;;5034932;28;20193;-79
2021/10/28 08:41:49;;;;;;;349.50;328.63;;;10.50;99.90;;;;;;5033865;28;20177;-80
2021/10/28 08:44:31;;;;;;;409.70;386.45;;;10.50;99.90;;;;;;5038061;28;20222;-80
2021/10/28 08:47:03;;;;;;;365.50;344.15;;;10.60;99.90;;;;;;5038791;28;20543;-80
2021/10/28 08:49:39;;;;;;;403.38;380.48;;;10.60;99.90;;;;;;5037971;28;20188;-80
2021/10/28 08:58:35;;;;;;;376.00;354.27;;;10.80;99.90;;;;;;5038101;28;20180;-80
2021/10/28 09:24:22;;;;;;;237.30;221.02;;;11.20;99.90;;;;;;5038455;28;20164;-79
2021/10/28 09:27:04;;;;;;;223.70;207.10;;;11.30;99.90;;;;;;5038474;28;20168;-80
2021/10/28 09:32:32;;;;;;;188.13;172.73;;;11.30;99.90;;;;;;5038244;28;20160;-80
2021/10/28 09:35:20;;;;;;;174.98;160.13;;;11.40;99.90;;;;;;5036538;28;20529;-80
2021/10/28 09:51:16;;;;;;;224.82;208.82;;;12.00;99.90;;;;;;5038124;28;20639;-79
2021/10/28 09:59:27;;;;;;;115.03;102.47;;;12.30;99.90;;;;;;5037933;28;20192;-79
2021/10/28 10:02:15;;;;;;;111.93;97.38;;;12.40;99.90;;;;;;5036256;28;20169;-80
2021/10/28 10:04:42;;;;;;;117.00;102.95;;;12.50;99.90;;;;;;5037532;28;20189;-80
2021/10/28 10:07:13;;;;;;;123.85;111.15;;;12.60;99.90;;;;;;5034936;28;20165;-79
2021/10/28 10:09:40;;;;;;;176.77;161.90;;;12.60;99.90;;;;;;5035170;28;20177;-78
2021/10/28 10:12:07;;;;;;;154.10;140.43;;;12.60;99.90;;;;;;5035279;28;20180;-79
2021/10/28 10:14:38;;;;;;;172.37;157.53;;;12.60;99.90;;;;;;5034927;28;20716;-78
2021/10/28 10:17:08;;;;;;;188.60;173.87;;;12.70;99.90;;;;;;5035637;28;20886;-78
2021/10/28 10:19:37;;;;;;;185.68;171.23;;;12.90;99.90;;;;;;5034701;28;20439;-80
2021/10/28 11:03:04;;;;;;;86.03;35.25;;;13.20;99.90;;;;;;5017666;28;20181;-79
2021/10/28 11:15:29;;;;;;;96.97;72.63;;;13.70;99.90;;;;;;5039158;28;20845;-79
2021/10/28 11:26:27;;;;;;;89.67;49.57;;;14.60;99.90;;;;;;5038717;28;20538;-79
2021/10/28 13:55:33;;;;;;;104.90;92.97;;;15.10;99.90;;;;;;5039041;28;20403;-84
2021/10/28 14:14:54;;;;;;;96.30;77.07;;;15.10;99.90;;;;;;5037999;28;20483;-84
2021/10/28 14:18:09;;;;;;;104.97;70.27;;;15.10;99.90;;;;;;5037972;28;20415;-84
2021/10/28 14:22:44;;;;;;;94.07;62.63;;;15.00;99.90;;;;;;5038422;28;20439;-84
2021/10/28 14:28:29;;;;;;;82.83;28.40;;;15.20;99.90;;;;;;5037888;28;20428;-84
2021/10/28 15:28:22;;;;;;;115.87;103.80;;;14.30;99.90;;;;;;5038246;28;20463;-84
2021/10/28 15:36:26;;;;;;;100.40;76.60;;;14.10;99.90;;;;;;5037516;28;20736;-82
2021/10/28 15:41:45;;;;;;;96.63;66.00;;;14.00;99.90;;;;;;5037329;28;20411;-84
2021/10/28 16:01:09;;;;;;;84.57;30.07;;;13.50;99.90;;;;;;5040034;28;20387;-84
2021/10/28 16:23:13;;;;;;;111.30;79.00;;;12.80;99.90;;;;;;5039353;28;20699;-84
2021/10/28 16:25:39;;;;;;;102.40;65.55;;;12.80;99.90;;;;;;5038667;28;20447;-84
2021/10/28 16:28:05;;;;;;;128.50;111.50;;;12.70;99.90;;;;;;5037598;28;20691;-84
2021/10/28 16:30:30;;;;;;;185.07;168.57;;;12.70;99.90;;;;;;5038751;28;20260;-83
2021/10/28 16:32:56;;;;;;;214.93;197.63;;;12.60;99.90;;;;;;5039059;28;20171;-84
2021/10/28 16:35:25;;;;;;;291.17;270.93;;;12.50;99.90;;;;;;5037229;28;20185;-84
2021/10/28 16:37:51;;;;;;;235.15;217.10;;;12.50;99.90;;;;;;5037693;28;20240;-84
2021/10/28 16:40:17;;;;;;;260.10;241.35;;;12.50;99.90;;;;;;5038617;28;20276;-84
2021/10/28 16:42:43;;;;;;;309.23;288.07;;;12.40;99.90;;;;;;5037765;28;20692;-84
2021/10/28 16:45:09;;;;;;;291.63;271.83;;;12.30;99.90;;;;;;5038147;28;20217;-84
2021/10/28 16:51:19;;;;;;;;;;;;;;;;;;;;;
2021/10/28 16:54:42;;;;;;;;;;;;;;;;;;;;;
2021/10/28 17:07:46;;;;;;;305.70;285.73;;;11.90;99.90;;;;;;4996280;28;20663;-84
2021/10/28 17:11:14;;;;;;;;;;;;;;;;;;;;;
2021/10/28 17:14:34;;;;;;;273.95;255.48;;;11.70;99.90;;;;;;4999206;28;20603;-85
2021/10/28 17:17:35;;;;;;;275.85;256.67;;;11.70;99.90;;;;;;4928591;28;20185;-82
2021/10/28 17:20:36;;;;;;;293.60;274.02;;;11.60;99.90;;;;;;4981281;28;20168;-84
2021/10/28 17:23:17;;;;;;;276.10;256.58;;;11.60;99.90;;;;;;4998231;28;20200;-84
2021/10/28 17:30:46;;;;;;;242.65;224.95;;;11.50;99.90;;;;;;4936880;29;20196;-84
2021/10/28 17:33:57;;;;;;;218.77;202.10;;;11.50;99.90;;;;;;4827850;29;20735;-84
2021/10/28 17:37:03;;;;;;;144.35;129.77;;;11.40;99.90;;;;;;4843718;29;20187;-84
2021/10/28 17:43:20;;;;;;;;;;;;;;;;;;;;;
2021/10/28 17:46:50;;;;;;;131.10;117.55;;;11.20;99.90;;;;;;4903033;29;20212;-84
2021/10/28 17:50:42;;;;;;;146.82;132.80;;;11.20;99.90;;;;;;4859662;29;20249;-84
2021/10/28 17:57:15;;;;;;;;;;;;;;;;;;;;;
2021/10/28 18:00:20;;;;;;;124.63;111.50;;;11.20;99.90;;;;;;4791161;29;20215;-84
2021/10/28 18:06:58;;;;;;;122.47;103.45;;;11.10;99.90;;;;;;4795632;29;20301;-84
2021/10/28 18:15:31;;;;;;;168.40;153.50;;;11.00;99.90;;;;;;5036041;28;20197;-84
2021/10/28 18:18:47;;;;;;;158.50;142.93;;;11.00;99.90;;;;;;5034819;28;20222;-84
2021/10/28 18:25:29;;;;;;;175.52;159.82;;;10.90;99.90;;;;;;4976760;28;20183;-84
2021/10/28 18:28:43;;;;;;;211.10;194.48;;;10.90;99.90;;;;;;4998259;28;20209;-84
2021/10/28 18:31:58;;;;;;;223.95;206.70;;;10.90;99.90;;;;;;5029164;28;20177;-84
2021/10/28 18:34:24;;;;;;;174.45;159.40;;;10.90;99.90;;;;;;5101620;22;20243;-80
2021/10/28 18:36:51;;;;;;;139.23;125.77;;;10.90;99.90;;;;;;5044135;28;20157;-80
2021/10/28 18:39:16;;;;;;;160.13;145.52;;;10.90;99.90;;;;;;5044208;28;20661;-80
2021/10/28 18:41:47;;;;;;;125.60;112.37;;;10.80;99.90;;;;;;5043858;28;20215;-80
2021/10/28 18:44:13;;;;;;;133.70;119.90;;;10.80;99.90;;;;;;5045445;28;20757;-80
2021/10/28 18:46:39;;;;;;;285.77;266.35;;;10.80;99.90;;;;;;5045973;28;20197;-80
2021/10/28 18:49:06;;;;;;;315.80;295.67;;;10.70;99.90;;;;;;5045352;28;20173;-80
2021/10/28 18:51:33;;;;;;;343.13;321.67;;;10.50;99.90;;;;;;5045753;28;20161;-80
2021/10/28 18:53:58;;;;;;;329.05;308.70;;;10.50;99.90;;;;;;5044489;28;20169;-80
2021/10/28 18:56:24;;;;;;;303.67;284.27;;;10.40;99.90;;;;;;5045897;28;20200;-80
2021/10/28 18:58:50;;;;;;;297.97;278.30;;;10.40;99.90;;;;;;5044315;28;20614;-80
2021/10/28 19:01:18;;;;;;;266.77;248.73;;;10.40;99.90;;;;;;5045054;28;20432;-80
2021/10/28 19:03:45;;;;;;;275.67;257.13;;;10.40;99.90;;;;;;5045574;28;20415;-80
2021/10/28 19:06:12;;;;;;;278.67;259.40;;;10.40;99.90;;;;;;5041825;28;20221;-80
2021/10/28 19:08:40;;;;;;;259.48;241.43;;;10.40;99.90;;;;;;5041938;28;20189;-80
2021/10/28 19:11:10;;;;;;;275.42;256.45;;;10.30;99.90;;;;;;5044061;28;20174;-80
2021/10/28 19:13:37;;;;;;;257.67;240.40;;;10.30;99.90;;;;;;5045532;28;20157;-80
2021/10/28 19:16:04;;;;;;;324.65;303.27;;;10.30;99.90;;;;;;5045970;28;20232;-80
2021/10/28 19:18:30;;;;;;;288.90;270.50;;;10.20;99.90;;;;;;5045331;28;20196;-80
2021/10/28 19:20:56;;;;;;;288.73;270.13;;;10.20;99.90;;;;;;5044544;28;20173;-80
2021/10/28 19:23:21;;;;;;;296.17;277.10;;;10.20;99.90;;;;;;5046448;28;20193;-80
2021/10/28 19:25:48;;;;;;;312.90;293.27;;;10.10;99.90;;;;;;5045884;28;20212;-80
2021/10/28 19:28:13;;;;;;;327.10;306.65;;;10.10;99.90;;;;;;5049518;28;20189;-80
2021/10/28 19:30:48;;;;;;;312.63;293.07;;;10.10;99.90;;;;;;5047354;28;20164;-80
2021/10/28 19:33:20;;;;;;;314.08;294.92;;;10.00;99.90;;;;;;5047340;28;20149;-80
2021/10/28 19:35:51;;;;;;;284.10;264.55;;;10.00;99.90;;;;;;5048889;28;20212;-80
2021/10/28 19:41:15;;;;;;;263.73;246.25;;;10.00;99.90;;;;;;5047250;28;20188;-80
2021/10/28 19:46:39;;;;;;;313.40;292.75;;;9.90;99.90;;;;;;5015394;28;20220;-80
2021/10/28 19:49:05;;;;;;;263.92;246.00;;;9.90;99.90;;;;;;5048536;28;20188;-80
2021/10/28 19:51:31;;;;;;;227.05;210.73;;;9.90;99.90;;;;;;5047360;28;20263;-80
2021/10/28 19:53:57;;;;;;;219.90;202.90;;;9.80;99.90;;;;;;5046433;28;20204;-80
2021/10/28 19:56:24;;;;;;;226.47;210.00;;;9.80;99.90;;;;;;5045985;28;20407;-80
2021/10/28 19:58:55;;;;;;;174.20;159.57;;;9.80;99.90;;;;;;5046871;28;20173;-80
2021/10/28 20:06:30;;;;;;;190.10;174.13;;;9.70;99.90;;;;;;5045862;28;20177;-80
2021/10/28 20:14:55;;;;;;;187.30;170.43;;;9.70;99.90;;;;;;5046339;28;20152;-80
2021/10/28 20:22:53;;;;;;;248.73;230.98;;;9.60;99.90;;;;;;5046049;28;20141;-79
2021/10/28 20:25:21;;;;;;;274.92;256.27;;;9.60;99.90;;;;;;5045819;28;20184;-80
2021/10/28 20:27:50;;;;;;;246.93;228.52;;;9.60;99.90;;;;;;5045345;28;20249;-80
2021/10/28 20:30:17;;;;;;;255.05;236.93;;;9.60;99.90;;;;;;5047647;28;20153;-80
2021/10/28 20:32:43;;;;;;;258.60;240.32;;;9.50;99.90;;;;;;5045226;28;20633;-80
2021/10/28 20:37:37;;;;;;;262.53;243.67;;;9.50;99.90;;;;;;5046300;28;20767;-79
2021/10/28 20:40:04;;;;;;;247.85;229.75;;;9.50;99.90;;;;;;5047026;28;20256;-80
2021/10/28 20:42:37;;;;;;;256.92;238.55;;;9.50;99.90;;;;;;5044471;28;20200;-80
2021/10/28 20:45:10;;;;;;;318.88;297.85;;;9.50;99.90;;;;;;5045959;28;20184;-80
2021/10/28 20:47:36;;;;;;;285.77;266.38;;;9.50;99.90;;;;;;5043776;28;20153;-80
2021/10/28 20:50:03;;;;;;;305.65;285.48;;;9.50;99.90;;;;;;5046955;28;20161;-80
2021/10/28 20:52:30;;;;;;;246.65;228.73;;;9.50;99.90;;;;;;5045274;28;20185;-80
2021/10/28 20:54:56;;;;;;;329.30;308.13;;;9.50;99.90;;;;;;5042993;28;20161;-79
2021/10/28 20:57:21;;;;;;;321.07;299.67;;;9.40;99.90;;;;;;5046256;28;20165;-80
2021/10/28 20:59:47;;;;;;;288.03;268.87;;;9.40;99.90;;;;;;5045906;28;20672;-80
2021/10/28 21:02:13;;;;;;;257.40;239.90;;;9.40;99.90;;;;;;5044032;28;20173;-79
2021/10/28 21:04:38;;;;;;;266.70;248.73;;;9.50;99.90;;;;;;5044219;28;20224;-80
2021/10/28 21:07:04;;;;;;;338.50;317.53;;;9.50;99.90;;;;;;5046194;28;20214;-80
2021/10/28 21:09:30;;;;;;;314.37;294.53;;;9.40;99.90;;;;;;5046750;28;20665;-80
2021/10/28 21:11:56;;;;;;;293.07;273.30;;;9.30;99.90;;;;;;5046832;28;20166;-80
2021/10/28 21:14:21;;;;;;;314.30;293.37;;;9.40;99.90;;;;;;5043493;28;20819;-80
2021/10/28 21:16:47;;;;;;;272.43;253.60;;;9.40;99.90;;;;;;5044221;28;20197;-80
2021/10/28 21:19:13;;;;;;;175.33;160.27;;;9.40;99.90;;;;;;5044103;28;20199;-80
2021/10/28 21:21:40;;;;;;;224.03;206.90;;;9.40;99.90;;;;;;5045311;28;20504;-80
2021/10/28 21:24:07;;;;;;;256.33;237.75;;;9.40;99.90;;;;;;5045556;28;20179;-80
2021/10/28 21:26:37;;;;;;;211.48;195.13;;;9.40;99.90;;;;;;5046146;28;20212;-80
2021/10/28 21:29:04;;;;;;;190.15;174.57;;;9.40;99.90;;;;;;5046376;28;20188;-80
2021/10/28 21:31:30;;;;;;;232.73;215.50;;;9.40;99.90;;;;;;5046104;28;20168;-80
2021/10/28 21:33:56;;;;;;;218.57;201.35;;;9.30;99.90;;;;;;5046171;28;20169;-80
2021/10/28 21:36:22;;;;;;;274.15;255.18;;;9.30;99.90;;;;;;5045128;28;20192;-79
2021/10/28 21:38:49;;;;;;;246.23;228.30;;;9.30;99.90;;;;;;5045737;28;20185;-80
2021/10/28 21:41:15;;;;;;;249.50;232.10;;;9.30;99.90;;;;;;5045007;28;20169;-80
2021/10/28 21:43:40;;;;;;;236.47;218.77;;;9.30;99.90;;;;;;5045198;28;20260;-80
2021/10/28 21:46:06;;;;;;;247.27;229.63;;;9.20;99.90;;;;;;5045481;28;20443;-80
2021/10/28 21:48:32;;;;;;;258.67;240.93;;;9.20;99.90;;;;;;5045480;28;20208;-80
2021/10/28 21:51:02;;;;;;;233.23;215.35;;;9.20;99.90;;;;;;5044565;28;20154;-80
2021/10/28 21:53:34;;;;;;;260.10;241.55;;;9.20;99.90;;;;;;5042433;28;20173;-80
2021/10/28 22:01:24;;;;;;;328.88;308.33;;;9.10;99.90;;;;;;5045920;28;20247;-80
2021/10/28 22:04:18;;;;;;;280.90;262.08;;;9.20;99.90;;;;;;5043878;28;20157;-80
2021/10/28 22:25:32;;;;;;;360.48;338.88;;;9.00;99.90;;;;;;5041773;28;20590;-80
2021/10/28 22:27:58;;;;;;;359.33;337.03;;;9.00;99.90;;;;;;5044771;28;20255;-80
2021/10/28 22:30:25;;;;;;;337.83;316.93;;;9.00;99.90;;;;;;5044833;28;20511;-80
2021/10/28 22:32:53;;;;;;;366.58;344.40;;;9.00;99.90;;;;;;5045130;28;20414;-80
2021/10/28 22:35:34;;;;;;;369.50;347.33;;;9.00;99.90;;;;;;5043958;28;20189;-80
2021/10/28 22:38:03;;;;;;;408.33;383.98;;;9.00;99.90;;;;;;5045013;28;20708;-80
2021/10/28 22:40:34;;;;;;;443.23;417.23;;;9.10;99.90;;;;;;5043226;28;20192;-80
2021/10/28 22:43:13;;;;;;;420.00;395.75;;;9.10;99.90;;;;;;5044892;28;20640;-80
2021/10/28 22:45:40;;;;;;;401.83;378.77;;;9.20;99.90;;;;;;5044336;28;20185;-80
2021/10/28 22:48:10;;;;;;;426.45;401.52;;;9.10;99.90;;;;;;5043122;28;20340;-80
2021/10/28 22:50:38;;;;;;;416.50;392.23;;;9.20;99.90;;;;;;5042597;28;20244;-82
2021/10/28 22:53:05;;;;;;;386.50;364.17;;;9.10;99.90;;;;;;5042781;28;20215;-80
2021/10/28 22:55:38;;;;;;;396.45;373.58;;;9.10;99.90;;;;;;5044747;28;20190;-80
2021/10/28 22:58:24;;;;;;;427.52;401.35;;;9.10;99.90;;;;;;5043434;28;20200;-80
2021/10/28 23:01:01;;;;;;;408.02;384.73;;;9.10;99.90;;;;;;5044585;28;20214;-80
2021/10/28 23:21:10;;;;;;;388.92;366.05;;;9.10;99.90;;;;;;5048179;28;20184;-80